sensor_id;sensor_type;location;lat;lon;timestamp;P1;durP1;ratioP1;P2;durP2;ratioP2
43700;SDS011;58809;47.984;7.964;2023-03-14T00:00:21;1.55;;;1.08;;
43700;SDS011;58809;47.984;7.964;2023-03-14T00:03:23;1.13;;;1.02;;
43700;SDS011;58809;47.984;7.964;2023-03-14T00:06:25;1.58;;;0.70;;
43700;SDS011;58809;47.984;7.964;2023-03-14T00:09:27;0.82;;;0.68;;
43700;SDS011;58809;47.984;7.964;2023-03-14T00:12:31;1.08;;;0.75;;
43700;SDS011;58809;47.984;7.964;2023-03-14T00:15:33;1.42;;;0.60;;
43700;SDS011;58809;47.984;7.964;2023-03-14T00:18:36;2.85;;;1.10;;
43700;SDS011;58809;47.984;7.964;2023-03-14T00:21:38;1.35;;;1.00;;
43700;SDS011;58809;47.984;7.964;2023-03-14T00:24:39;0.98;;;0.95;;
43700;SDS011;58809;47.984;7.964;2023-03-14T00:27:41;0.80;;;0.80;;
43700;SDS011;58809;47.984;7.964;2023-03-14T00:30:42;1.58;;;0.90;;
43700;SDS011;58809;47.984;7.964;2023-03-14T00:33:44;0.93;;;0.75;;
43700;SDS011;58809;47.984;7.964;2023-03-14T00:36:46;1.77;;;0.85;;
43700;SDS011;58809;47.984;7.964;2023-03-14T00:39:47;2.28;;;0.98;;
43700;SDS011;58809;47.984;7.964;2023-03-14T00:42:49;2.10;;;1.15;;
43700;SDS011;58809;47.984;7.964;2023-03-14T00:45:51;1.48;;;0.98;;
43700;SDS011;58809;47.984;7.964;2023-03-14T00:48:53;1.00;;;0.70;;
43700;SDS011;58809;47.984;7.964;2023-03-14T00:51:54;0.90;;;0.65;;
43700;SDS011;58809;47.984;7.964;2023-03-14T00:54:56;1.50;;;0.68;;
43700;SDS011;58809;47.984;7.964;2023-03-14T00:57:58;0.55;;;0.55;;
43700;SDS011;58809;47.984;7.964;2023-03-14T01:01:04;1.65;;;1.00;;
43700;SDS011;58809;47.984;7.964;2023-03-14T01:04:17;2.20;;;1.02;;
43700;SDS011;58809;47.984;7.964;2023-03-14T01:07:19;2.47;;;1.35;;
43700;SDS011;58809;47.984;7.964;2023-03-14T01:10:20;3.08;;;1.08;;
43700;SDS011;58809;47.984;7.964;2023-03-14T01:13:22;3.47;;;2.20;;
43700;SDS011;58809;47.984;7.964;2023-03-14T01:16:24;5.20;;;2.47;;
43700;SDS011;58809;47.984;7.964;2023-03-14T01:19:27;1.23;;;1.13;;
43700;SDS011;58809;47.984;7.964;2023-03-14T01:22:29;2.92;;;0.85;;
43700;SDS011;58809;47.984;7.964;2023-03-14T01:25:31;3.13;;;1.83;;
43700;SDS011;58809;47.984;7.964;2023-03-14T01:28:33;3.67;;;2.20;;
43700;SDS011;58809;47.984;7.964;2023-03-14T01:31:35;2.50;;;1.92;;
43700;SDS011;58809;47.984;7.964;2023-03-14T01:34:37;2.40;;;1.90;;
43700;SDS011;58809;47.984;7.964;2023-03-14T01:37:38;5.25;;;2.28;;
43700;SDS011;58809;47.984;7.964;2023-03-14T01:40:44;2.53;;;1.35;;
43700;SDS011;58809;47.984;7.964;2023-03-14T01:43:47;4.63;;;2.15;;
43700;SDS011;58809;47.984;7.964;2023-03-14T01:46:49;5.85;;;2.20;;
43700;SDS011;58809;47.984;7.964;2023-03-14T01:50:12;3.85;;;1.27;;
43700;SDS011;58809;47.984;7.964;2023-03-14T01:53:14;2.08;;;1.50;;
43700;SDS011;58809;47.984;7.964;2023-03-14T01:56:16;2.38;;;1.42;;
43700;SDS011;58809;47.984;7.964;2023-03-14T01:59:19;2.22;;;1.70;;
43700;SDS011;58809;47.984;7.964;2023-03-14T02:02:22;4.18;;;1.75;;
43700;SDS011;58809;47.984;7.964;2023-03-14T02:05:28;2.35;;;1.25;;
43700;SDS011;58809;47.984;7.964;2023-03-14T02:11:50;6.15;;;1.90;;
43700;SDS011;58809;47.984;7.964;2023-03-14T02:15:11;3.42;;;1.42;;
43700;SDS011;58809;47.984;7.964;2023-03-14T02:18:34;5.70;;;1.30;;
43700;SDS011;58809;47.984;7.964;2023-03-14T02:28:12;2.63;;;1.67;;
43700;SDS011;58809;47.984;7.964;2023-03-14T02:31:14;4.47;;;1.52;;
43700;SDS011;58809;47.984;7.964;2023-03-14T02:34:17;2.95;;;1.50;;
43700;SDS011;58809;47.984;7.964;2023-03-14T02:37:19;4.25;;;1.48;;
43700;SDS011;58809;47.984;7.964;2023-03-14T02:40:24;5.45;;;2.10;;
43700;SDS011;58809;47.984;7.964;2023-03-14T02:43:27;1.92;;;1.48;;
43700;SDS011;58809;47.984;7.964;2023-03-14T02:46:33;3.83;;;1.70;;
43700;SDS011;58809;47.984;7.964;2023-03-14T02:49:36;2.85;;;1.35;;
43700;SDS011;58809;47.984;7.964;2023-03-14T02:52:38;6.00;;;1.42;;
43700;SDS011;58809;47.984;7.964;2023-03-14T02:55:44;3.47;;;1.90;;
43700;SDS011;58809;47.984;7.964;2023-03-14T02:58:46;3.88;;;1.83;;
43700;SDS011;58809;47.984;7.964;2023-03-14T03:02:02;4.00;;;1.60;;
43700;SDS011;58809;47.984;7.964;2023-03-14T03:05:05;4.43;;;1.53;;
43700;SDS011;58809;47.984;7.964;2023-03-14T03:08:07;2.33;;;1.30;;
43700;SDS011;58809;47.984;7.964;2023-03-14T03:11:09;3.63;;;1.52;;
43700;SDS011;58809;47.984;7.964;2023-03-14T03:14:11;9.10;;;2.25;;
43700;SDS011;58809;47.984;7.964;2023-03-14T03:17:13;8.45;;;2.25;;
43700;SDS011;58809;47.984;7.964;2023-03-14T03:20:14;3.25;;;1.50;;
43700;SDS011;58809;47.984;7.964;2023-03-14T03:23:16;6.68;;;1.67;;
43700;SDS011;58809;47.984;7.964;2023-03-14T03:26:17;7.22;;;1.85;;
43700;SDS011;58809;47.984;7.964;2023-03-14T03:29:19;4.50;;;2.10;;
43700;SDS011;58809;47.984;7.964;2023-03-14T03:32:21;5.38;;;2.25;;
43700;SDS011;58809;47.984;7.964;2023-03-14T03:35:23;6.47;;;1.63;;
43700;SDS011;58809;47.984;7.964;2023-03-14T03:38:28;5.57;;;1.58;;
43700;SDS011;58809;47.984;7.964;2023-03-14T03:41:30;3.17;;;1.10;;
43700;SDS011;58809;47.984;7.964;2023-03-14T03:44:33;3.95;;;1.75;;
43700;SDS011;58809;47.984;7.964;2023-03-14T03:47:35;3.47;;;1.50;;
43700;SDS011;58809;47.984;7.964;2023-03-14T03:50:37;2.58;;;1.42;;
43700;SDS011;58809;47.984;7.964;2023-03-14T03:53:38;7.38;;;1.55;;
43700;SDS011;58809;47.984;7.964;2023-03-14T03:56:44;4.03;;;1.48;;
43700;SDS011;58809;47.984;7.964;2023-03-14T03:59:45;5.00;;;1.80;;
43700;SDS011;58809;47.984;7.964;2023-03-14T04:02:47;3.97;;;1.20;;
43700;SDS011;58809;47.984;7.964;2023-03-14T04:05:57;3.15;;;1.10;;
43700;SDS011;58809;47.984;7.964;2023-03-14T04:09:04;1.15;;;0.82;;
43700;SDS011;58809;47.984;7.964;2023-03-14T04:12:19;1.45;;;0.85;;
43700;SDS011;58809;47.984;7.964;2023-03-14T04:15:33;3.47;;;1.35;;
43700;SDS011;58809;47.984;7.964;2023-03-14T04:18:41;2.10;;;1.02;;
43700;SDS011;58809;47.984;7.964;2023-03-14T04:21:43;2.03;;;0.95;;
43700;SDS011;58809;47.984;7.964;2023-03-14T04:24:48;3.80;;;1.17;;
43700;SDS011;58809;47.984;7.964;2023-03-14T04:27:50;4.00;;;1.33;;
43700;SDS011;58809;47.984;7.964;2023-03-14T04:30:57;3.17;;;1.00;;
43700;SDS011;58809;47.984;7.964;2023-03-14T04:34:00;4.15;;;1.52;;
43700;SDS011;58809;47.984;7.964;2023-03-14T04:37:09;2.03;;;0.85;;
43700;SDS011;58809;47.984;7.964;2023-03-14T04:40:15;3.30;;;1.10;;
43700;SDS011;58809;47.984;7.964;2023-03-14T04:43:19;3.88;;;1.10;;
43700;SDS011;58809;47.984;7.964;2023-03-14T04:46:27;1.55;;;0.82;;
43700;SDS011;58809;47.984;7.964;2023-03-14T04:49:28;3.25;;;1.00;;
43700;SDS011;58809;47.984;7.964;2023-03-14T04:52:30;2.65;;;1.60;;
43700;SDS011;58809;47.984;7.964;2023-03-14T04:55:33;4.43;;;1.50;;
43700;SDS011;58809;47.984;7.964;2023-03-14T04:58:36;3.80;;;1.05;;
43700;SDS011;58809;47.984;7.964;2023-03-14T05:01:39;2.10;;;0.50;;
43700;SDS011;58809;47.984;7.964;2023-03-14T05:05:02;1.15;;;0.70;;
43700;SDS011;58809;47.984;7.964;2023-03-14T05:08:36;1.00;;;0.70;;
43700;SDS011;58809;47.984;7.964;2023-03-14T05:12:01;2.63;;;1.00;;
43700;SDS011;58809;47.984;7.964;2023-03-14T05:15:13;2.72;;;1.45;;
43700;SDS011;58809;47.984;7.964;2023-03-14T05:18:34;1.92;;;1.10;;
43700;SDS011;58809;47.984;7.964;2023-03-14T05:21:45;1.92;;;0.77;;
43700;SDS011;58809;47.984;7.964;2023-03-14T05:25:04;1.73;;;0.77;;
43700;SDS011;58809;47.984;7.964;2023-03-14T05:28:21;1.23;;;0.60;;
43700;SDS011;58809;47.984;7.964;2023-03-14T05:31:37;1.23;;;0.50;;
43700;SDS011;58809;47.984;7.964;2023-03-14T05:34:50;1.98;;;0.70;;
43700;SDS011;58809;47.984;7.964;2023-03-14T05:38:09;2.88;;;0.70;;
43700;SDS011;58809;47.984;7.964;2023-03-14T05:41:29;2.22;;;0.93;;
43700;SDS011;58809;47.984;7.964;2023-03-14T05:44:49;1.73;;;0.75;;
43700;SDS011;58809;47.984;7.964;2023-03-14T05:48:08;1.52;;;0.63;;
43700;SDS011;58809;47.984;7.964;2023-03-14T05:51:20;2.15;;;0.80;;
43700;SDS011;58809;47.984;7.964;2023-03-14T05:54:34;3.13;;;0.95;;
43700;SDS011;58809;47.984;7.964;2023-03-14T05:58:02;2.17;;;1.02;;
43700;SDS011;58809;47.984;7.964;2023-03-14T06:01:38;4.10;;;0.85;;
43700;SDS011;58809;47.984;7.964;2023-03-14T06:04:52;1.85;;;0.70;;
43700;SDS011;58809;47.984;7.964;2023-03-14T06:07:54;1.70;;;0.63;;
43700;SDS011;58809;47.984;7.964;2023-03-14T06:10:56;3.35;;;0.55;;
43700;SDS011;58809;47.984;7.964;2023-03-14T06:14:03;0.85;;;0.65;;
43700;SDS011;58809;47.984;7.964;2023-03-14T06:17:05;1.25;;;0.63;;
43700;SDS011;58809;47.984;7.964;2023-03-14T06:20:14;2.92;;;0.75;;
43700;SDS011;58809;47.984;7.964;2023-03-14T06:23:15;2.72;;;0.73;;
43700;SDS011;58809;47.984;7.964;2023-03-14T06:26:17;4.22;;;0.70;;
43700;SDS011;58809;47.984;7.964;2023-03-14T06:29:19;2.03;;;0.85;;
43700;SDS011;58809;47.984;7.964;2023-03-14T06:32:20;2.20;;;1.33;;
43700;SDS011;58809;47.984;7.964;2023-03-14T06:35:25;3.25;;;1.10;;
43700;SDS011;58809;47.984;7.964;2023-03-14T06:38:27;3.00;;;0.77;;
43700;SDS011;58809;47.984;7.964;2023-03-14T06:41:30;2.45;;;0.52;;
43700;SDS011;58809;47.984;7.964;2023-03-14T06:44:33;4.18;;;1.00;;
43700;SDS011;58809;47.984;7.964;2023-03-14T06:47:35;2.63;;;1.25;;
43700;SDS011;58809;47.984;7.964;2023-03-14T06:50:39;1.52;;;1.05;;
43700;SDS011;58809;47.984;7.964;2023-03-14T06:53:42;2.67;;;1.02;;
43700;SDS011;58809;47.984;7.964;2023-03-14T06:56:43;3.10;;;1.33;;
43700;SDS011;58809;47.984;7.964;2023-03-14T06:59:46;1.80;;;0.70;;
43700;SDS011;58809;47.984;7.964;2023-03-14T07:02:48;3.72;;;0.88;;
43700;SDS011;58809;47.984;7.964;2023-03-14T07:05:58;4.40;;;1.55;;
43700;SDS011;58809;47.984;7.964;2023-03-14T07:09:01;0.75;;;0.60;;
43700;SDS011;58809;47.984;7.964;2023-03-14T07:12:04;0.80;;;0.47;;
43700;SDS011;58809;47.984;7.964;2023-03-14T07:15:07;2.47;;;0.95;;
43700;SDS011;58809;47.984;7.964;2023-03-14T07:18:25;2.53;;;0.82;;
43700;SDS011;58809;47.984;7.964;2023-03-14T07:21:27;1.15;;;0.60;;
43700;SDS011;58809;47.984;7.964;2023-03-14T07:24:29;1.17;;;0.90;;
43700;SDS011;58809;47.984;7.964;2023-03-14T07:27:30;0.73;;;0.60;;
43700;SDS011;58809;47.984;7.964;2023-03-14T07:30:32;2.63;;;0.90;;
43700;SDS011;58809;47.984;7.964;2023-03-14T07:33:36;0.90;;;0.55;;
43700;SDS011;58809;47.984;7.964;2023-03-14T07:36:38;0.80;;;0.28;;
43700;SDS011;58809;47.984;7.964;2023-03-14T07:39:40;1.13;;;0.50;;
43700;SDS011;58809;47.984;7.964;2023-03-14T07:42:47;2.72;;;0.60;;
43700;SDS011;58809;47.984;7.964;2023-03-14T07:46:02;1.55;;;0.70;;
43700;SDS011;58809;47.984;7.964;2023-03-14T07:49:04;6.68;;;1.35;;
43700;SDS011;58809;47.984;7.964;2023-03-14T07:52:05;2.03;;;0.60;;
43700;SDS011;58809;47.984;7.964;2023-03-14T07:55:07;3.47;;;1.10;;
43700;SDS011;58809;47.984;7.964;2023-03-14T07:58:09;0.65;;;0.50;;
43700;SDS011;58809;47.984;7.964;2023-03-14T08:01:10;0.75;;;0.35;;
43700;SDS011;58809;47.984;7.964;2023-03-14T08:04:12;4.75;;;0.70;;
43700;SDS011;58809;47.984;7.964;2023-03-14T08:07:14;1.67;;;0.70;;
43700;SDS011;58809;47.984;7.964;2023-03-14T08:10:15;1.60;;;0.82;;
43700;SDS011;58809;47.984;7.964;2023-03-14T08:13:23;1.10;;;0.45;;
43700;SDS011;58809;47.984;7.964;2023-03-14T08:16:26;1.27;;;0.65;;
43700;SDS011;58809;47.984;7.964;2023-03-14T08:19:28;1.08;;;0.40;;
43700;SDS011;58809;47.984;7.964;2023-03-14T08:22:30;0.60;;;0.45;;
43700;SDS011;58809;47.984;7.964;2023-03-14T08:25:31;2.10;;;0.55;;
43700;SDS011;58809;47.984;7.964;2023-03-14T08:28:33;3.08;;;1.27;;
43700;SDS011;58809;47.984;7.964;2023-03-14T08:31:35;0.80;;;0.63;;
43700;SDS011;58809;47.984;7.964;2023-03-14T08:34:36;0.82;;;0.55;;
43700;SDS011;58809;47.984;7.964;2023-03-14T08:37:38;1.35;;;0.80;;
43700;SDS011;58809;47.984;7.964;2023-03-14T08:40:40;2.28;;;0.75;;
43700;SDS011;58809;47.984;7.964;2023-03-14T08:43:42;0.85;;;0.40;;
43700;SDS011;58809;47.984;7.964;2023-03-14T08:46:44;4.50;;;1.25;;
43700;SDS011;58809;47.984;7.964;2023-03-14T08:49:45;1.13;;;0.82;;
43700;SDS011;58809;47.984;7.964;2023-03-14T08:52:47;1.35;;;0.75;;
43700;SDS011;58809;47.984;7.964;2023-03-14T08:55:52;1.10;;;0.47;;
43700;SDS011;58809;47.984;7.964;2023-03-14T08:58:55;0.98;;;0.65;;
43700;SDS011;58809;47.984;7.964;2023-03-14T09:01:56;0.88;;;0.50;;
43700;SDS011;58809;47.984;7.964;2023-03-14T09:04:58;0.70;;;0.57;;
43700;SDS011;58809;47.984;7.964;2023-03-14T09:08:00;2.00;;;1.02;;
43700;SDS011;58809;47.984;7.964;2023-03-14T09:11:02;2.90;;;1.08;;
43700;SDS011;58809;47.984;7.964;2023-03-14T09:14:03;3.15;;;1.25;;
43700;SDS011;58809;47.984;7.964;2023-03-14T09:17:05;1.42;;;1.10;;
43700;SDS011;58809;47.984;7.964;2023-03-14T09:20:06;1.40;;;0.80;;
43700;SDS011;58809;47.984;7.964;2023-03-14T09:23:10;0.93;;;0.60;;
43700;SDS011;58809;47.984;7.964;2023-03-14T09:26:11;0.57;;;0.52;;
43700;SDS011;58809;47.984;7.964;2023-03-14T09:29:13;2.78;;;0.73;;
43700;SDS011;58809;47.984;7.964;2023-03-14T09:32:15;0.50;;;0.50;;
43700;SDS011;58809;47.984;7.964;2023-03-14T09:35:16;0.93;;;0.63;;
43700;SDS011;58809;47.984;7.964;2023-03-14T09:38:20;0.43;;;0.40;;
43700;SDS011;58809;47.984;7.964;2023-03-14T09:41:26;1.20;;;0.73;;
43700;SDS011;58809;47.984;7.964;2023-03-14T09:44:31;0.80;;;0.40;;
43700;SDS011;58809;47.984;7.964;2023-03-14T09:47:35;0.20;;;0.20;;
43700;SDS011;58809;47.984;7.964;2023-03-14T09:50:48;0.65;;;0.65;;
43700;SDS011;58809;47.984;7.964;2023-03-14T09:53:52;2.58;;;0.70;;
43700;SDS011;58809;47.984;7.964;2023-03-14T09:56:54;0.90;;;0.40;;
43700;SDS011;58809;47.984;7.964;2023-03-14T09:59:57;0.70;;;0.47;;
43700;SDS011;58809;47.984;7.964;2023-03-14T10:06:14;0.50;;;0.40;;
43700;SDS011;58809;47.984;7.964;2023-03-14T10:09:19;1.15;;;0.80;;
43700;SDS011;58809;47.984;7.964;2023-03-14T10:12:33;0.90;;;0.50;;
43700;SDS011;58809;47.984;7.964;2023-03-14T10:15:36;4.45;;;2.75;;
43700;SDS011;58809;47.984;7.964;2023-03-14T10:18:41;3.53;;;2.40;;
43700;SDS011;58809;47.984;7.964;2023-03-14T10:21:52;1.33;;;1.08;;
43700;SDS011;58809;47.984;7.964;2023-03-14T10:25:01;2.47;;;1.95;;
43700;SDS011;58809;47.984;7.964;2023-03-14T10:28:09;0.82;;;0.73;;
43700;SDS011;58809;47.984;7.964;2023-03-14T10:31:45;3.30;;;1.10;;
43700;SDS011;58809;47.984;7.964;2023-03-14T10:35:04;1.05;;;1.05;;
43700;SDS011;58809;47.984;7.964;2023-03-14T10:38:16;0.50;;;0.50;;
43700;SDS011;58809;47.984;7.964;2023-03-14T10:41:19;0.73;;;0.70;;
43700;SDS011;58809;47.984;7.964;2023-03-14T10:44:26;0.80;;;0.80;;
43700;SDS011;58809;47.984;7.964;2023-03-14T10:47:28;1.00;;;0.40;;
43700;SDS011;58809;47.984;7.964;2023-03-14T10:50:31;0.45;;;0.20;;
43700;SDS011;58809;47.984;7.964;2023-03-14T10:53:34;0.30;;;0.30;;
43700;SDS011;58809;47.984;7.964;2023-03-14T10:56:41;0.30;;;0.30;;
43700;SDS011;58809;47.984;7.964;2023-03-14T10:59:43;1.30;;;0.40;;
43700;SDS011;58809;47.984;7.964;2023-03-14T11:06:06;0.90;;;0.70;;
43700;SDS011;58809;47.984;7.964;2023-03-14T11:09:28;0.10;;;0.10;;
43700;SDS011;58809;47.984;7.964;2023-03-14T11:19:17;0.75;;;0.70;;
43700;SDS011;58809;47.984;7.964;2023-03-14T11:29:36;0.20;;;0.20;;
43700;SDS011;58809;47.984;7.964;2023-03-14T11:35:48;0.50;;;0.32;;
43700;SDS011;58809;47.984;7.964;2023-03-14T11:38:58;1.20;;;0.73;;
43700;SDS011;58809;47.984;7.964;2023-03-14T11:42:00;1.08;;;0.80;;
43700;SDS011;58809;47.984;7.964;2023-03-14T11:45:10;4.35;;;0.88;;
43700;SDS011;58809;47.984;7.964;2023-03-14T11:51:47;4.32;;;2.75;;
43700;SDS011;58809;47.984;7.964;2023-03-14T11:58:14;1.63;;;0.95;;
43700;SDS011;58809;47.984;7.964;2023-03-14T12:01:21;1.17;;;0.60;;
43700;SDS011;58809;47.984;7.964;2023-03-14T12:11:17;3.67;;;1.65;;
43700;SDS011;58809;47.984;7.964;2023-03-14T12:17:38;3.30;;;1.75;;
43700;SDS011;58809;47.984;7.964;2023-03-14T12:20:41;1.17;;;0.95;;
43700;SDS011;58809;47.984;7.964;2023-03-14T12:23:55;0.68;;;0.60;;
43700;SDS011;58809;47.984;7.964;2023-03-14T12:26:59;0.60;;;0.60;;
43700;SDS011;58809;47.984;7.964;2023-03-14T12:30:02;1.13;;;0.75;;
43700;SDS011;58809;47.984;7.964;2023-03-14T12:36:21;0.90;;;0.90;;
43700;SDS011;58809;47.984;7.964;2023-03-14T12:43:32;1.02;;;0.55;;
43700;SDS011;58809;47.984;7.964;2023-03-14T12:49:37;0.63;;;0.63;;
43700;SDS011;58809;47.984;7.964;2023-03-14T12:56:04;2.03;;;0.80;;
43700;SDS011;58809;47.984;7.964;2023-03-14T13:02:43;4.22;;;1.30;;
43700;SDS011;58809;47.984;7.964;2023-03-14T13:05:52;1.85;;;1.20;;
43700;SDS011;58809;47.984;7.964;2023-03-14T13:08:56;3.40;;;1.30;;
43700;SDS011;58809;47.984;7.964;2023-03-14T13:12:16;6.68;;;1.38;;
43700;SDS011;58809;47.984;7.964;2023-03-14T13:18:35;1.35;;;0.77;;
43700;SDS011;58809;47.984;7.964;2023-03-14T13:21:38;2.63;;;1.00;;
43700;SDS011;58809;47.984;7.964;2023-03-14T13:24:40;2.63;;;0.98;;
43700;SDS011;58809;47.984;7.964;2023-03-14T13:27:42;4.18;;;1.50;;
43700;SDS011;58809;47.984;7.964;2023-03-14T13:30:45;2.42;;;1.42;;
43700;SDS011;58809;47.984;7.964;2023-03-14T13:34:00;2.65;;;0.95;;
43700;SDS011;58809;47.984;7.964;2023-03-14T13:37:13;1.10;;;0.70;;
43700;SDS011;58809;47.984;7.964;2023-03-14T13:40:33;3.38;;;0.80;;
43700;SDS011;58809;47.984;7.964;2023-03-14T13:43:36;1.70;;;0.65;;
43700;SDS011;58809;47.984;7.964;2023-03-14T13:46:42;1.88;;;0.88;;
43700;SDS011;58809;47.984;7.964;2023-03-14T13:49:44;2.88;;;1.58;;
43700;SDS011;58809;47.984;7.964;2023-03-14T13:52:47;1.95;;;1.05;;
43700;SDS011;58809;47.984;7.964;2023-03-14T13:55:56;2.03;;;1.00;;
43700;SDS011;58809;47.984;7.964;2023-03-14T13:59:03;3.90;;;1.80;;
43700;SDS011;58809;47.984;7.964;2023-03-14T14:02:06;5.38;;;2.70;;
43700;SDS011;58809;47.984;7.964;2023-03-14T14:05:18;5.25;;;2.97;;
43700;SDS011;58809;47.984;7.964;2023-03-14T14:08:20;4.32;;;1.95;;
43700;SDS011;58809;47.984;7.964;2023-03-14T14:15:01;5.70;;;2.95;;
43700;SDS011;58809;47.984;7.964;2023-03-14T14:18:24;5.65;;;2.80;;
43700;SDS011;58809;47.984;7.964;2023-03-14T14:21:28;7.75;;;3.08;;
43700;SDS011;58809;47.984;7.964;2023-03-14T14:24:31;6.43;;;2.80;;
43700;SDS011;58809;47.984;7.964;2023-03-14T14:27:36;5.38;;;2.45;;
43700;SDS011;58809;47.984;7.964;2023-03-14T14:30:40;4.85;;;2.63;;
43700;SDS011;58809;47.984;7.964;2023-03-14T14:33:43;6.10;;;2.67;;
43700;SDS011;58809;47.984;7.964;2023-03-14T14:36:44;5.60;;;2.60;;
43700;SDS011;58809;47.984;7.964;2023-03-14T14:39:51;6.53;;;3.22;;
43700;SDS011;58809;47.984;7.964;2023-03-14T14:42:54;4.57;;;2.78;;
43700;SDS011;58809;47.984;7.964;2023-03-14T14:46:05;5.35;;;2.80;;
43700;SDS011;58809;47.984;7.964;2023-03-14T14:49:10;5.65;;;2.30;;
43700;SDS011;58809;47.984;7.964;2023-03-14T14:52:17;4.78;;;2.03;;
43700;SDS011;58809;47.984;7.964;2023-03-14T14:55:28;6.00;;;2.72;;
43700;SDS011;58809;47.984;7.964;2023-03-14T14:58:35;5.80;;;2.83;;
43700;SDS011;58809;47.984;7.964;2023-03-14T15:01:41;5.45;;;2.42;;
43700;SDS011;58809;47.984;7.964;2023-03-14T15:04:43;9.32;;;2.70;;
43700;SDS011;58809;47.984;7.964;2023-03-14T15:07:45;3.20;;;1.85;;
43700;SDS011;58809;47.984;7.964;2023-03-14T15:10:47;4.13;;;2.00;;
43700;SDS011;58809;47.984;7.964;2023-03-14T15:13:49;5.38;;;2.10;;
43700;SDS011;58809;47.984;7.964;2023-03-14T15:16:51;6.20;;;2.30;;
43700;SDS011;58809;47.984;7.964;2023-03-14T15:19:53;3.53;;;1.98;;
43700;SDS011;58809;47.984;7.964;2023-03-14T15:22:54;4.10;;;2.42;;
43700;SDS011;58809;47.984;7.964;2023-03-14T15:25:56;4.70;;;1.80;;
43700;SDS011;58809;47.984;7.964;2023-03-14T15:28:57;5.18;;;2.40;;
43700;SDS011;58809;47.984;7.964;2023-03-14T15:31:59;4.13;;;1.83;;
43700;SDS011;58809;47.984;7.964;2023-03-14T15:35:00;5.45;;;1.75;;
43700;SDS011;58809;47.984;7.964;2023-03-14T15:38:02;7.53;;;2.40;;
43700;SDS011;58809;47.984;7.964;2023-03-14T15:41:04;3.72;;;1.60;;
43700;SDS011;58809;47.984;7.964;2023-03-14T15:44:05;3.38;;;2.00;;
43700;SDS011;58809;47.984;7.964;2023-03-14T15:47:08;4.68;;;1.98;;
43700;SDS011;58809;47.984;7.964;2023-03-14T15:50:11;2.40;;;1.08;;
43700;SDS011;58809;47.984;7.964;2023-03-14T15:53:13;4.78;;;1.70;;
43700;SDS011;58809;47.984;7.964;2023-03-14T15:56:16;2.22;;;1.55;;
43700;SDS011;58809;47.984;7.964;2023-03-14T15:59:20;2.72;;;1.83;;
43700;SDS011;58809;47.984;7.964;2023-03-14T16:02:22;3.88;;;1.65;;
43700;SDS011;58809;47.984;7.964;2023-03-14T16:05:23;5.18;;;2.10;;
43700;SDS011;58809;47.984;7.964;2023-03-14T16:08:25;3.33;;;1.35;;
43700;SDS011;58809;47.984;7.964;2023-03-14T16:11:30;4.70;;;1.90;;
43700;SDS011;58809;47.984;7.964;2023-03-14T16:14:31;4.05;;;1.83;;
43700;SDS011;58809;47.984;7.964;2023-03-14T16:17:33;4.30;;;1.70;;
43700;SDS011;58809;47.984;7.964;2023-03-14T16:20:35;2.53;;;1.80;;
43700;SDS011;58809;47.984;7.964;2023-03-14T16:23:48;3.75;;;1.60;;
43700;SDS011;58809;47.984;7.964;2023-03-14T16:26:49;4.05;;;1.67;;
43700;SDS011;58809;47.984;7.964;2023-03-14T16:29:51;4.97;;;2.25;;
43700;SDS011;58809;47.984;7.964;2023-03-14T16:32:53;4.88;;;1.50;;
43700;SDS011;58809;47.984;7.964;2023-03-14T16:35:55;4.85;;;2.00;;
43700;SDS011;58809;47.984;7.964;2023-03-14T16:39:06;4.95;;;1.98;;
43700;SDS011;58809;47.984;7.964;2023-03-14T16:42:08;5.70;;;2.17;;
43700;SDS011;58809;47.984;7.964;2023-03-14T16:45:09;3.92;;;1.88;;
43700;SDS011;58809;47.984;7.964;2023-03-14T16:48:11;4.72;;;1.92;;
43700;SDS011;58809;47.984;7.964;2023-03-14T16:51:13;2.35;;;1.52;;
43700;SDS011;58809;47.984;7.964;2023-03-14T16:54:16;5.40;;;2.08;;
43700;SDS011;58809;47.984;7.964;2023-03-14T16:57:18;2.72;;;1.48;;
43700;SDS011;58809;47.984;7.964;2023-03-14T17:00:19;4.72;;;2.03;;
43700;SDS011;58809;47.984;7.964;2023-03-14T17:03:22;4.72;;;1.80;;
43700;SDS011;58809;47.984;7.964;2023-03-14T17:06:25;3.15;;;1.80;;
43700;SDS011;58809;47.984;7.964;2023-03-14T17:09:28;2.88;;;1.60;;
43700;SDS011;58809;47.984;7.964;2023-03-14T17:12:32;5.68;;;2.55;;
43700;SDS011;58809;47.984;7.964;2023-03-14T17:15:33;2.95;;;1.70;;
43700;SDS011;58809;47.984;7.964;2023-03-14T17:18:35;7.20;;;2.28;;
43700;SDS011;58809;47.984;7.964;2023-03-14T17:21:37;2.00;;;1.30;;
43700;SDS011;58809;47.984;7.964;2023-03-14T17:24:39;3.60;;;2.00;;
43700;SDS011;58809;47.984;7.964;2023-03-14T17:27:40;3.60;;;1.63;;
43700;SDS011;58809;47.984;7.964;2023-03-14T17:30:45;2.17;;;1.75;;
43700;SDS011;58809;47.984;7.964;2023-03-14T17:33:46;4.25;;;1.67;;
43700;SDS011;58809;47.984;7.964;2023-03-14T17:36:48;3.80;;;1.88;;
43700;SDS011;58809;47.984;7.964;2023-03-14T17:39:50;4.85;;;2.60;;
43700;SDS011;58809;47.984;7.964;2023-03-14T17:42:51;2.35;;;1.20;;
43700;SDS011;58809;47.984;7.964;2023-03-14T17:46:00;3.40;;;1.77;;
43700;SDS011;58809;47.984;7.964;2023-03-14T17:49:02;3.13;;;1.52;;
43700;SDS011;58809;47.984;7.964;2023-03-14T17:52:04;3.55;;;2.53;;
43700;SDS011;58809;47.984;7.964;2023-03-14T17:58:10;3.22;;;1.75;;
43700;SDS011;58809;47.984;7.964;2023-03-14T18:01:14;2.35;;;1.52;;
43700;SDS011;58809;47.984;7.964;2023-03-14T18:07:18;3.20;;;1.42;;
43700;SDS011;58809;47.984;7.964;2023-03-14T18:10:23;1.85;;;1.52;;
43700;SDS011;58809;47.984;7.964;2023-03-14T18:13:25;3.65;;;1.83;;
43700;SDS011;58809;47.984;7.964;2023-03-14T18:16:26;2.85;;;1.40;;
43700;SDS011;58809;47.984;7.964;2023-03-14T18:19:28;2.42;;;1.38;;
43700;SDS011;58809;47.984;7.964;2023-03-14T18:22:30;5.47;;;1.58;;
43700;SDS011;58809;47.984;7.964;2023-03-14T18:25:33;1.77;;;1.20;;
43700;SDS011;58809;47.984;7.964;2023-03-14T18:28:35;3.67;;;1.50;;
43700;SDS011;58809;47.984;7.964;2023-03-14T18:31:36;2.60;;;1.83;;
43700;SDS011;58809;47.984;7.964;2023-03-14T18:34:38;6.57;;;2.40;;
43700;SDS011;58809;47.984;7.964;2023-03-14T18:37:39;5.03;;;2.42;;
43700;SDS011;58809;47.984;7.964;2023-03-14T18:40:41;4.10;;;2.00;;
43700;SDS011;58809;47.984;7.964;2023-03-14T18:43:43;4.20;;;2.55;;
43700;SDS011;58809;47.984;7.964;2023-03-14T18:46:44;4.65;;;2.95;;
43700;SDS011;58809;47.984;7.964;2023-03-14T18:49:46;6.40;;;2.65;;
43700;SDS011;58809;47.984;7.964;2023-03-14T18:52:48;11.95;;;4.78;;
43700;SDS011;58809;47.984;7.964;2023-03-14T18:55:51;6.40;;;2.90;;
43700;SDS011;58809;47.984;7.964;2023-03-14T18:58:54;14.80;;;5.82;;
43700;SDS011;58809;47.984;7.964;2023-03-14T19:01:56;7.97;;;3.10;;
43700;SDS011;58809;47.984;7.964;2023-03-14T19:04:57;6.00;;;2.67;;
43700;SDS011;58809;47.984;7.964;2023-03-14T19:07:59;5.00;;;2.28;;
43700;SDS011;58809;47.984;7.964;2023-03-14T19:11:04;4.00;;;2.92;;
43700;SDS011;58809;47.984;7.964;2023-03-14T19:14:07;5.60;;;2.67;;
43700;SDS011;58809;47.984;7.964;2023-03-14T19:17:10;3.50;;;1.77;;
43700;SDS011;58809;47.984;7.964;2023-03-14T19:20:11;6.13;;;2.40;;
43700;SDS011;58809;47.984;7.964;2023-03-14T19:23:18;5.00;;;2.17;;
43700;SDS011;58809;47.984;7.964;2023-03-14T19:26:21;5.35;;;2.15;;
43700;SDS011;58809;47.984;7.964;2023-03-14T19:29:24;5.32;;;2.40;;
43700;SDS011;58809;47.984;7.964;2023-03-14T19:32:26;5.53;;;2.97;;
43700;SDS011;58809;47.984;7.964;2023-03-14T19:35:27;4.95;;;2.47;;
43700;SDS011;58809;47.984;7.964;2023-03-14T19:38:32;5.10;;;3.05;;
43700;SDS011;58809;47.984;7.964;2023-03-14T19:41:34;7.97;;;3.30;;
43700;SDS011;58809;47.984;7.964;2023-03-14T19:44:37;6.10;;;4.65;;
43700;SDS011;58809;47.984;7.964;2023-03-14T19:47:39;6.45;;;3.95;;
43700;SDS011;58809;47.984;7.964;2023-03-14T19:50:41;5.00;;;3.38;;
43700;SDS011;58809;47.984;7.964;2023-03-14T19:53:43;5.32;;;3.53;;